Time;durP1;ratioP1;P1;durP2;ratioP2;P2;SDS_P1;SDS_P2;PMS_P1;PMS_P2;Temp;Humidity;BMP_temperature;BMP_pressure;BME280_temperature;BME280_humidity;BME280_pressure;Samples;Min_cycle;Max_cycle;Signal;HPM_P1;HPM_P2
2023/12/31 00:00:46;;;;;;;2.72;1.10;;;;;;;;;;4811044;29;20057;-72
2023/12/31 00:03:12;;;;;;;2.78;1.00;;;;;;;;;;4815655;29;20051;-72
2023/12/31 00:05:39;;;;;;;5.15;1.27;;;;;;;;;;4809092;29;20059;-73
2023/12/31 00:08:06;;;;;;;4.78;1.25;;;;;;;;;;4815776;29;20435;-73
2023/12/31 00:10:33;;;;;;;3.20;1.00;;;;;;;;;;4810300;29;20058;-76
2023/12/31 00:12:59;;;;;;;4.82;0.82;;;;;;;;;;4811783;29;20137;-73
2023/12/31 00:15:26;;;;;;;1.42;0.90;;;;;;;;;;4800473;29;20054;-74
2023/12/31 00:17:52;;;;;;;1.50;0.70;;;;;;;;;;4810483;29;20107;-75
2023/12/31 00:20:19;;;;;;;1.92;0.90;;;;;;;;;;4817694;29;20043;-75
2023/12/31 00:22:45;;;;;;;1.10;1.00;;;;;;;;;;4810092;29;21101;-76
2023/12/31 00:25:12;;;;;;;1.35;0.85;;;;;;;;;;4810602;29;20408;-74
2023/12/31 00:27:38;;;;;;;2.15;0.70;;;;;;;;;;4813820;29;20479;-76
2023/12/31 00:30:05;;;;;;;1.00;0.60;;;;;;;;;;4806566;29;20050;-73
2023/12/31 00:32:32;;;;;;;4.72;0.98;;;;;;;;;;4813266;29;20050;-73
2023/12/31 00:34:58;;;;;;;3.03;0.88;;;;;;;;;;4808122;29;20082;-74
2023/12/31 00:37:25;;;;;;;1.40;0.77;;;;;;;;;;4806287;29;20047;-74
2023/12/31 00:39:51;;;;;;;2.95;0.90;;;;;;;;;;4812614;29;20392;-73
2023/12/31 00:42:18;;;;;;;3.00;1.00;;;;;;;;;;4794240;29;20063;-72
2023/12/31 00:44:44;;;;;;;2.13;0.82;;;;;;;;;;4812451;29;20681;-74
2023/12/31 00:47:11;;;;;;;3.78;0.80;;;;;;;;;;4812406;29;20057;-74
2023/12/31 00:49:37;;;;;;;2.47;0.93;;;;;;;;;;4810394;29;20111;-75
2023/12/31 00:52:04;;;;;;;3.08;1.17;;;;;;;;;;4806987;29;20061;-74
2023/12/31 00:54:31;;;;;;;3.58;0.93;;;;;;;;;;4813190;29;20153;-75
2023/12/31 00:56:57;;;;;;;2.95;0.60;;;;;;;;;;4818526;29;20165;-74
2023/12/31 00:59:24;;;;;;;1.35;0.70;;;;;;;;;;4809903;29;20131;-75
2023/12/31 01:01:51;;;;;;;1.67;0.73;;;;;;;;;;4818138;29;20461;-75
2023/12/31 01:04:20;;;;;;;1.83;0.80;;;;;;;;;;4795134;29;20146;-74
2023/12/31 01:06:47;;;;;;;2.00;1.08;;;;;;;;;;4805079;29;20058;-74
2023/12/31 01:09:13;;;;;;;1.20;0.70;;;;;;;;;;4814060;29;20065;-75
2023/12/31 01:11:40;;;;;;;3.42;0.80;;;;;;;;;;4811460;29;20480;-75
2023/12/31 01:14:06;;;;;;;1.10;0.80;;;;;;;;;;4815953;29;20092;-75
2023/12/31 01:16:33;;;;;;;1.23;0.70;;;;;;;;;;4808949;29;20065;-75
2023/12/31 01:18:59;;;;;;;1.17;0.70;;;;;;;;;;4813150;29;20051;-75
2023/12/31 01:21:26;;;;;;;3.40;0.88;;;;;;;;;;4796693;29;20054;-75
2023/12/31 01:23:53;;;;;;;2.15;0.90;;;;;;;;;;4812575;29;20543;-75
2023/12/31 01:26:19;;;;;;;20.33;8.02;;;;;;;;;;4800725;29;20058;-75
2023/12/31 01:28:46;;;;;;;89.75;34.70;;;;;;;;;;4801396;29;20514;-75
2023/12/31 01:31:19;;;;;;;95.85;38.13;;;;;;;;;;4809372;29;20535;-76
2023/12/31 01:33:46;;;;;;;94.93;40.22;;;;;;;;;;4794468;29;20054;-74
2023/12/31 01:36:16;;;;;;;103.25;43.17;;;;;;;;;;4802722;29;20095;-74
2023/12/31 01:38:43;;;;;;;148.20;55.47;;;;;;;;;;4817225;29;20058;-74
2023/12/31 01:41:11;;;;;;;132.18;53.05;;;;;;;;;;4813887;29;20086;-74
2023/12/31 01:43:40;;;;;;;159.85;58.78;;;;;;;;;;4817638;29;20142;-75
2023/12/31 01:46:11;;;;;;;177.00;71.47;;;;;;;;;;4809976;29;20095;-75
2023/12/31 01:48:39;;;;;;;193.90;74.03;;;;;;;;;;4813741;29;20123;-74
2023/12/31 01:51:06;;;;;;;149.25;54.10;;;;;;;;;;4803513;29;20050;-74
2023/12/31 01:53:32;;;;;;;44.92;19.67;;;;;;;;;;4806762;29;20047;-75
2023/12/31 01:55:59;;;;;;;20.95;9.13;;;;;;;;;;4815151;29;20050;-75
2023/12/31 01:58:25;;;;;;;18.63;7.03;;;;;;;;;;4800696;29;20489;-76
2023/12/31 02:00:52;;;;;;;20.80;6.38;;;;;;;;;;4815585;29;20598;-74
2023/12/31 02:03:19;;;;;;;14.75;5.95;;;;;;;;;;4805507;29;20055;-74
2023/12/31 02:05:46;;;;;;;23.83;10.00;;;;;;;;;;4819065;29;20050;-75
2023/12/31 02:08:12;;;;;;;25.02;9.02;;;;;;;;;;4799059;29;20050;-75
2023/12/31 02:10:39;;;;;;;16.38;6.90;;;;;;;;;;4821641;29;20051;-75
2023/12/31 02:13:05;;;;;;;14.75;6.15;;;;;;;;;;4825124;29;20050;-75
2023/12/31 02:15:32;;;;;;;8.38;3.65;;;;;;;;;;4810599;29;20051;-79
2023/12/31 02:18:00;;;;;;;8.82;3.63;;;;;;;;;;4812513;29;20101;-78
2023/12/31 02:20:28;;;;;;;10.00;4.75;;;;;;;;;;4811252;29;20144;-78
2023/12/31 02:22:54;;;;;;;7.60;3.05;;;;;;;;;;4804514;29;20050;-80
2023/12/31 02:25:24;;;;;;;10.65;4.32;;;;;;;;;;4817960;29;20058;-79
2023/12/31 02:27:51;;;;;;;5.55;2.47;;;;;;;;;;4813558;29;20073;-78
2023/12/31 02:30:20;;;;;;;5.63;2.60;;;;;;;;;;4814239;29;20384;-78
2023/12/31 02:32:46;;;;;;;2.53;1.50;;;;;;;;;;4803378;29;20070;-79
2023/12/31 02:35:16;;;;;;;2.10;1.20;;;;;;;;;;4818207;29;20519;-80
2023/12/31 02:37:42;;;;;;;2.08;1.20;;;;;;;;;;4817887;29;20138;-78
2023/12/31 02:40:09;;;;;;;2.30;1.20;;;;;;;;;;4802171;29;20050;-79
2023/12/31 02:42:36;;;;;;;2.03;1.50;;;;;;;;;;4804531;29;20054;-79
2023/12/31 02:45:02;;;;;;;1.98;1.30;;;;;;;;;;4809603;29;20068;-79
2023/12/31 02:47:29;;;;;;;2.65;1.40;;;;;;;;;;4784417;29;22645;-78
2023/12/31 02:49:56;;;;;;;4.40;1.33;;;;;;;;;;4800888;29;20601;-79
2023/12/31 02:52:22;;;;;;;3.05;1.17;;;;;;;;;;4812391;29;20682;-79
2023/12/31 02:54:48;;;;;;;1.63;1.10;;;;;;;;;;4812523;29;20140;-77
2023/12/31 02:57:15;;;;;;;1.65;1.10;;;;;;;;;;4807393;29;20062;-78
2023/12/31 02:59:41;;;;;;;2.03;1.30;;;;;;;;;;4793005;29;20615;-77
2023/12/31 03:02:08;;;;;;;2.13;1.52;;;;;;;;;;4808169;29;20065;-78
2023/12/31 03:04:38;;;;;;;3.70;1.50;;;;;;;;;;4813009;29;20050;-78
2023/12/31 03:07:04;;;;;;;1.33;1.17;;;;;;;;;;4807937;29;20111;-77
2023/12/31 03:09:31;;;;;;;3.90;1.20;;;;;;;;;;4812590;29;20058;-78
2023/12/31 03:11:57;;;;;;;2.13;1.30;;;;;;;;;;4808198;29;20054;-78
2023/12/31 03:14:23;;;;;;;1.92;1.08;;;;;;;;;;4797627;29;20734;-78
2023/12/31 03:16:50;;;;;;;2.25;1.17;;;;;;;;;;4803712;29;20123;-78
2023/12/31 03:19:18;;;;;;;3.35;1.10;;;;;;;;;;4811292;29;20471;-78
2023/12/31 03:21:45;;;;;;;3.92;1.20;;;;;;;;;;4800975;29;20047;-78
2023/12/31 03:24:11;;;;;;;2.00;1.17;;;;;;;;;;4792331;29;20532;-79
2023/12/31 03:26:38;;;;;;;3.28;1.20;;;;;;;;;;4773799;29;20498;-75
2023/12/31 03:29:04;;;;;;;2.38;1.15;;;;;;;;;;4803145;29;20137;-74
2023/12/31 03:31:31;;;;;;;1.67;1.10;;;;;;;;;;4805051;29;20834;-74
2023/12/31 03:33:57;;;;;;;4.10;1.15;;;;;;;;;;4809909;29;20062;-76
2023/12/31 03:36:24;;;;;;;2.78;1.20;;;;;;;;;;4816402;29;20153;-73
2023/12/31 03:38:51;;;;;;;2.10;1.35;;;;;;;;;;4807719;29;20082;-74
2023/12/31 03:41:17;;;;;;;1.85;1.15;;;;;;;;;;4792118;29;20503;-74
2023/12/31 03:43:44;;;;;;;2.05;1.35;;;;;;;;;;4804720;29;20595;-75
2023/12/31 03:46:10;;;;;;;2.47;1.23;;;;;;;;;;4815870;29;20054;-75
2023/12/31 03:48:37;;;;;;;1.00;0.90;;;;;;;;;;4809259;29;20058;-74
2023/12/31 03:51:04;;;;;;;3.53;1.15;;;;;;;;;;4810241;29;20529;-73
2023/12/31 03:53:30;;;;;;;1.50;1.10;;;;;;;;;;4812273;29;20082;-74
2023/12/31 03:55:56;;;;;;;4.63;1.52;;;;;;;;;;4781231;29;20054;-74
2023/12/31 03:58:23;;;;;;;2.58;1.00;;;;;;;;;;4805883;29;20082;-74
2023/12/31 04:00:49;;;;;;;1.45;1.10;;;;;;;;;;4793092;29;20474;-75
2023/12/31 04:03:16;;;;;;;1.63;1.15;;;;;;;;;;4794430;29;20066;-74
2023/12/31 04:05:42;;;;;;;2.20;0.90;;;;;;;;;;4811744;29;20064;-73
2023/12/31 04:08:09;;;;;;;1.80;1.15;;;;;;;;;;4789773;29;20061;-74
2023/12/31 04:10:35;;;;;;;2.00;1.15;;;;;;;;;;4803861;29;20061;-76
2023/12/31 04:13:02;;;;;;;2.85;1.20;;;;;;;;;;4816099;29;20054;-74
2023/12/31 04:15:29;;;;;;;1.85;1.08;;;;;;;;;;4814859;29;20476;-75
2023/12/31 04:17:56;;;;;;;1.00;0.93;;;;;;;;;;4811154;29;20054;-73
2023/12/31 04:20:22;;;;;;;2.13;1.33;;;;;;;;;;4814393;29;20050;-73
2023/12/31 04:22:49;;;;;;;2.63;0.90;;;;;;;;;;4792305;29;20108;-74
2023/12/31 04:25:18;;;;;;;1.92;1.27;;;;;;;;;;4803916;29;20058;-76
2023/12/31 04:27:48;;;;;;;1.80;1.17;;;;;;;;;;4815156;29;20051;-74
2023/12/31 04:30:15;;;;;;;4.72;1.27;;;;;;;;;;4810638;29;20145;-74
2023/12/31 04:32:42;;;;;;;1.25;1.10;;;;;;;;;;4814523;29;20054;-75
2023/12/31 04:35:08;;;;;;;3.90;2.00;;;;;;;;;;4805708;29;20531;-76
2023/12/31 04:37:35;;;;;;;2.47;1.20;;;;;;;;;;4799217;29;20061;-73
2023/12/31 04:40:02;;;;;;;3.47;1.35;;;;;;;;;;4808810;29;20051;-73
2023/12/31 04:42:28;;;;;;;1.50;1.10;;;;;;;;;;4792851;29;20103;-74
2023/12/31 04:44:56;;;;;;;2.95;1.50;;;;;;;;;;4813720;29;20058;-73
2023/12/31 04:47:23;;;;;;;2.70;1.10;;;;;;;;;;4812322;29;20121;-75
2023/12/31 04:49:49;;;;;;;2.55;1.13;;;;;;;;;;4812333;29;20568;-74
2023/12/31 04:52:16;;;;;;;1.63;1.20;;;;;;;;;;4809333;29;20070;-74
2023/12/31 04:54:42;;;;;;;2.25;1.13;;;;;;;;;;4806472;29;20465;-74
2023/12/31 04:57:09;;;;;;;2.35;1.40;;;;;;;;;;4790683;29;20057;-73
2023/12/31 04:59:35;;;;;;;3.05;1.50;;;;;;;;;;4808187;29;20091;-74
2023/12/31 05:02:03;;;;;;;2.67;1.33;;;;;;;;;;4817662;29;20046;-74
2023/12/31 05:04:30;;;;;;;2.28;1.50;;;;;;;;;;4816421;29;20106;-75
2023/12/31 05:06:58;;;;;;;2.63;1.50;;;;;;;;;;4807150;29;20042;-74
2023/12/31 05:09:25;;;;;;;3.30;1.60;;;;;;;;;;4816684;29;20089;-74
2023/12/31 05:11:51;;;;;;;3.70;1.40;;;;;;;;;;4818472;29;20456;-74
2023/12/31 05:14:17;;;;;;;1.85;1.52;;;;;;;;;;4805373;29;20054;-74
2023/12/31 05:16:47;;;;;;;2.65;1.60;;;;;;;;;;4814122;29;20173;-75
2023/12/31 05:19:14;;;;;;;5.47;1.58;;;;;;;;;;4811976;29;20058;-74
2023/12/31 05:21:40;;;;;;;2.53;1.50;;;;;;;;;;4813168;29;20097;-75
2023/12/31 05:24:07;;;;;;;6.93;1.80;;;;;;;;;;4810793;29;20062;-73
2023/12/31 05:26:33;;;;;;;2.50;1.42;;;;;;;;;;4814739;29;20058;-75
2023/12/31 05:29:00;;;;;;;3.42;1.98;;;;;;;;;;4810932;29;20133;-75
2023/12/31 05:31:27;;;;;;;2.72;1.67;;;;;;;;;;4817050;29;20062;-74
2023/12/31 05:33:53;;;;;;;4.50;2.03;;;;;;;;;;4809411;29;20564;-73
2023/12/31 05:36:20;;;;;;;3.53;1.85;;;;;;;;;;4808149;29;20481;-73
2023/12/31 05:38:46;;;;;;;3.05;1.90;;;;;;;;;;4816840;29;20111;-75
2023/12/31 05:41:13;;;;;;;4.18;1.75;;;;;;;;;;4810378;29;20058;-74
2023/12/31 05:43:39;;;;;;;5.05;2.10;;;;;;;;;;4816801;29;20058;-73
2023/12/31 05:46:06;;;;;;;2.47;1.85;;;;;;;;;;4815032;29;20062;-77
2023/12/31 05:48:32;;;;;;;3.45;1.90;;;;;;;;;;4813426;29;20062;-78
2023/12/31 05:50:59;;;;;;;3.75;2.25;;;;;;;;;;4814333;29;20066;-77
2023/12/31 05:53:25;;;;;;;3.33;2.03;;;;;;;;;;4812044;29;20066;-78
2023/12/31 05:55:52;;;;;;;3.92;2.40;;;;;;;;;;4801874;29;20055;-78
2023/12/31 05:58:18;;;;;;;3.03;2.10;;;;;;;;;;4810400;29;20153;-77
2023/12/31 06:00:45;;;;;;;5.93;2.35;;;;;;;;;;4817963;29;20492;-77
2023/12/31 06:03:11;;;;;;;3.63;2.20;;;;;;;;;;4812217;29;20061;-77
2023/12/31 06:05:37;;;;;;;3.83;2.20;;;;;;;;;;4789075;29;20066;-77
2023/12/31 06:08:04;;;;;;;4.18;2.53;;;;;;;;;;4814124;29;20607;-77
2023/12/31 06:10:31;;;;;;;3.50;2.22;;;;;;;;;;4812693;29;20065;-77
2023/12/31 06:12:57;;;;;;;4.00;2.35;;;;;;;;;;4823485;29;20118;-78
2023/12/31 06:15:24;;;;;;;4.25;2.42;;;;;;;;;;4803995;29;20050;-77
2023/12/31 06:17:51;;;;;;;4.25;2.42;;;;;;;;;;4796147;29;20089;-78
2023/12/31 06:20:18;;;;;;;4.85;2.60;;;;;;;;;;4807699;29;20492;-78
2023/12/31 06:22:44;;;;;;;4.82;2.58;;;;;;;;;;4804236;29;20555;-78
2023/12/31 06:25:11;;;;;;;3.92;2.38;;;;;;;;;;4802383;29;20050;-78
2023/12/31 06:27:38;;;;;;;3.20;2.10;;;;;;;;;;4804914;29;20099;-77
2023/12/31 06:30:05;;;;;;;5.00;2.22;;;;;;;;;;4797074;29;20070;-78
2023/12/31 06:32:32;;;;;;;4.68;2.80;;;;;;;;;;4804668;29;20122;-78
2023/12/31 06:34:58;;;;;;;3.72;2.33;;;;;;;;;;4811054;29;20096;-77
2023/12/31 06:37:25;;;;;;;4.22;2.75;;;;;;;;;;4812166;29;20558;-78
2023/12/31 06:39:52;;;;;;;3.00;1.90;;;;;;;;;;4810938;29;20064;-78
2023/12/31 06:42:18;;;;;;;4.75;2.65;;;;;;;;;;4798627;29;20117;-78
2023/12/31 06:44:45;;;;;;;2.60;2.00;;;;;;;;;;4801189;29;20066;-78
2023/12/31 06:47:11;;;;;;;5.25;2.58;;;;;;;;;;4812105;29;20054;-78
2023/12/31 06:49:38;;;;;;;6.53;2.65;;;;;;;;;;4816389;29;20481;-78
2023/12/31 06:52:04;;;;;;;3.15;2.38;;;;;;;;;;4810695;29;20078;-78
2023/12/31 06:54:31;;;;;;;3.83;2.63;;;;;;;;;;4801340;29;20054;-78
2023/12/31 06:56:57;;;;;;;3.10;2.08;;;;;;;;;;4807259;29;20057;-78
2023/12/31 06:59:24;;;;;;;2.97;2.25;;;;;;;;;;4810544;29;20081;-78
2023/12/31 07:01:50;;;;;;;3.75;2.35;;;;;;;;;;4796298;29;20054;-78
2023/12/31 07:04:17;;;;;;;3.50;2.38;;;;;;;;;;4811975;29;20141;-78
2023/12/31 07:06:43;;;;;;;4.30;2.58;;;;;;;;;;4815628;29;20421;-78
2023/12/31 07:09:11;;;;;;;5.03;2.75;;;;;;;;;;4809944;29;20065;-78
2023/12/31 07:11:38;;;;;;;4.28;2.40;;;;;;;;;;4806465;29;20476;-78
2023/12/31 07:14:04;;;;;;;3.90;2.17;;;;;;;;;;4806970;29;20078;-78
2023/12/31 07:16:31;;;;;;;5.43;2.47;;;;;;;;;;4812362;29;20047;-78
2023/12/31 07:18:57;;;;;;;4.18;2.42;;;;;;;;;;4805304;29;20060;-78
2023/12/31 07:21:24;;;;;;;4.82;2.30;;;;;;;;;;4802952;29;20468;-78
2023/12/31 07:23:51;;;;;;;3.42;2.35;;;;;;;;;;4816782;29;20116;-78
2023/12/31 07:26:25;;;;;;;3.65;2.50;;;;;;;;;;4791365;29;20058;-78
2023/12/31 07:28:51;;;;;;;4.82;2.50;;;;;;;;;;4807256;29;20436;-78
2023/12/31 07:31:35;;;;;;;4.43;2.40;;;;;;;;;;4794185;29;20065;-78
2023/12/31 07:34:03;;;;;;;4.93;2.65;;;;;;;;;;4811342;29;20061;-78
2023/12/31 07:36:30;;;;;;;6.53;2.80;;;;;;;;;;4800611;29;20524;-78
2023/12/31 07:38:57;;;;;;;3.90;2.47;;;;;;;;;;4809473;29;20770;-78
2023/12/31 07:41:23;;;;;;;5.65;2.40;;;;;;;;;;4815870;29;20054;-77
2023/12/31 07:43:50;;;;;;;5.88;2.83;;;;;;;;;;4804423;29;20403;-78
2023/12/31 07:46:16;;;;;;;5.57;2.70;;;;;;;;;;4814294;29;20385;-78
2023/12/31 07:48:45;;;;;;;4.35;2.97;;;;;;;;;;4814770;29;20711;-78
2023/12/31 07:51:11;;;;;;;4.65;2.40;;;;;;;;;;4810568;29;20054;-78
2023/12/31 07:53:38;;;;;;;4.82;3.38;;;;;;;;;;4814351;29;20141;-78
2023/12/31 07:56:05;;;;;;;3.97;2.45;;;;;;;;;;4808725;29;20131;-77
2023/12/31 07:58:34;;;;;;;4.82;2.75;;;;;;;;;;4796011;29;20548;-77
2023/12/31 08:01:05;;;;;;;2.83;2.05;;;;;;;;;;4817658;29;20530;-78
2023/12/31 08:03:31;;;;;;;3.53;2.38;;;;;;;;;;4814851;29;20054;-77
2023/12/31 08:05:58;;;;;;;3.95;2.53;;;;;;;;;;4816222;29;20154;-77
2023/12/31 08:08:24;;;;;;;3.95;2.97;;;;;;;;;;4793982;29;20057;-78
2023/12/31 08:10:51;;;;;;;3.88;2.25;;;;;;;;;;4812145;29;20149;-77
2023/12/31 08:13:18;;;;;;;7.78;2.70;;;;;;;;;;4810336;29;20054;-78
2023/12/31 08:15:44;;;;;;;7.80;2.90;;;;;;;;;;4799177;29;20380;-78
2023/12/31 08:18:12;;;;;;;4.68;2.92;;;;;;;;;;4815745;29;20054;-78
2023/12/31 08:20:38;;;;;;;4.73;2.77;;;;;;;;;;4802917;29;20058;-78
2023/12/31 08:23:05;;;;;;;8.15;3.05;;;;;;;;;;4815925;29;20298;-79
2023/12/31 08:25:32;;;;;;;4.95;2.85;;;;;;;;;;4805324;29;20054;-78
2023/12/31 08:27:59;;;;;;;4.93;2.90;;;;;;;;;;4795871;29;20046;-78
2023/12/31 08:30:25;;;;;;;4.43;3.00;;;;;;;;;;4813459;29;20058;-78
2023/12/31 08:32:52;;;;;;;4.32;2.97;;;;;;;;;;4813426;29;20107;-78
2023/12/31 08:35:18;;;;;;;5.15;3.42;;;;;;;;;;4819365;29;20145;-78
2023/12/31 08:37:47;;;;;;;3.70;2.63;;;;;;;;;;4798146;29;20487;-78
2023/12/31 08:40:14;;;;;;;6.28;2.92;;;;;;;;;;4821254;29;20059;-79
2023/12/31 08:42:41;;;;;;;5.55;3.10;;;;;;;;;;4791582;29;20062;-78
2023/12/31 08:45:10;;;;;;;4.95;2.88;;;;;;;;;;4800387;29;20145;-78
2023/12/31 08:47:38;;;;;;;4.78;2.78;;;;;;;;;;4809703;29;20046;-77
2023/12/31 08:50:09;;;;;;;3.40;2.30;;;;;;;;;;4812646;29;20069;-79
2023/12/31 08:52:40;;;;;;;4.18;2.97;;;;;;;;;;4821177;29;20409;-78
2023/12/31 08:55:07;;;;;;;5.57;3.20;;;;;;;;;;4808448;29;20081;-78
2023/12/31 08:57:35;;;;;;;5.15;3.10;;;;;;;;;;4813797;29;20093;-79
2023/12/31 09:00:02;;;;;;;7.22;3.70;;;;;;;;;;4817069;29;20606;-78
2023/12/31 09:02:29;;;;;;;7.43;4.03;;;;;;;;;;4816299;29;20088;-79
2023/12/31 09:04:55;;;;;;;8.25;4.72;;;;;;;;;;4804349;29;20050;-79
2023/12/31 09:07:22;;;;;;;6.15;3.55;;;;;;;;;;4810941;29;20157;-79
2023/12/31 09:09:48;;;;;;;6.43;3.88;;;;;;;;;;4810738;29;20074;-79
2023/12/31 09:12:15;;;;;;;7.80;3.85;;;;;;;;;;4815583;29;20054;-79
2023/12/31 09:14:41;;;;;;;8.02;4.50;;;;;;;;;;4819017;29;20500;-78
2023/12/31 09:17:08;;;;;;;6.68;3.40;;;;;;;;;;4802971;29;20058;-79
2023/12/31 09:19:35;;;;;;;5.78;4.32;;;;;;;;;;4807956;29;20133;-79
2023/12/31 09:22:02;;;;;;;8.85;5.35;;;;;;;;;;4814859;29;20050;-79
2023/12/31 09:24:30;;;;;;;7.38;3.83;;;;;;;;;;4809015;29;20058;-80
2023/12/31 09:26:57;;;;;;;6.53;3.67;;;;;;;;;;4818099;29;20492;-81
2023/12/31 09:29:24;;;;;;;6.78;3.53;;;;;;;;;;4802583;29;20058;-79
2023/12/31 09:31:50;;;;;;;8.88;4.00;;;;;;;;;;4810630;29;20047;-79
2023/12/31 09:34:17;;;;;;;4.15;2.65;;;;;;;;;;4819482;29;20592;-79
2023/12/31 09:36:43;;;;;;;4.40;3.20;;;;;;;;;;4797868;29;20062;-79
2023/12/31 09:39:09;;;;;;;4.07;3.15;;;;;;;;;;4799058;29;20481;-79
2023/12/31 09:41:36;;;;;;;5.18;3.10;;;;;;;;;;4816670;29;20118;-79
2023/12/31 09:44:03;;;;;;;4.43;2.60;;;;;;;;;;4788943;29;20072;-79
2023/12/31 09:46:31;;;;;;;7.78;2.58;;;;;;;;;;4808725;29;20047;-79
2023/12/31 09:48:59;;;;;;;3.28;2.05;;;;;;;;;;4807528;29;20081;-79
2023/12/31 09:51:26;;;;;;;4.03;2.63;;;;;;;;;;4808104;29;20492;-79
2023/12/31 09:53:53;;;;;;;2.20;1.70;;;;;;;;;;4805046;29;20066;-79
2023/12/31 09:56:21;;;;;;;2.63;1.75;;;;;;;;;;4813028;29;20055;-78
2023/12/31 09:58:50;;;;;;;3.30;1.98;;;;;;;;;;4814149;29;20085;-79
2023/12/31 10:01:30;;;;;;;6.57;3.60;;;;;;;;;;4805613;29;20593;-78
2023/12/31 10:03:56;;;;;;;;;;;;;;;;;;4798619;29;20092;-78
2023/12/31 10:06:23;;;;;;;3.63;2.28;;;;;;;;;;4801852;29;19929;-79
2023/12/31 10:08:51;;;;;;;3.28;2.10;;;;;;;;;;4818080;29;20110;-78
2023/12/31 10:11:17;;;;;;;2.45;1.60;;;;;;;;;;4817871;29;20064;-78
2023/12/31 10:13:43;;;;;;;2.20;1.58;;;;;;;;;;4819487;29;20066;-80
2023/12/31 10:16:11;;;;;;;3.58;1.90;;;;;;;;;;4818012;29;20065;-80
2023/12/31 10:18:37;;;;;;;2.38;1.70;;;;;;;;;;4793273;29;20131;-78
2023/12/31 10:21:08;;;;;;;5.10;2.22;;;;;;;;;;4797336;29;20373;-79
2023/12/31 10:23:34;;;;;;;3.08;2.03;;;;;;;;;;4810226;29;20057;-79
2023/12/31 10:26:00;;;;;;;4.13;1.98;;;;;;;;;;4815449;29;20586;-73
2023/12/31 10:28:27;;;;;;;3.08;1.80;;;;;;;;;;4815895;29;20050;-73
2023/12/31 10:30:54;;;;;;;2.35;1.33;;;;;;;;;;4808044;29;20058;-73
2023/12/31 10:33:26;;;;;;;3.40;1.77;;;;;;;;;;4812888;29;20054;-73
2023/12/31 10:36:05;;;;;;;3.70;1.80;;;;;;;;;;4806451;29;20050;-74
2023/12/31 10:38:45;;;;;;;5.22;1.90;;;;;;;;;;4815700;29;20061;-75
2023/12/31 10:41:16;;;;;;;2.58;1.80;;;;;;;;;;4810687;29;20094;-73
2023/12/31 10:43:46;;;;;;;3.90;1.80;;;;;;;;;;4787220;29;20670;-74
2023/12/31 10:46:14;;;;;;;3.03;1.60;;;;;;;;;;4803084;29;20058;-75
2023/12/31 10:48:49;;;;;;;4.45;1.70;;;;;;;;;;4803871;29;20138;-74
2023/12/31 10:51:23;;;;;;;6.15;1.88;;;;;;;;;;4815854;29;20062;-74
2023/12/31 10:53:50;;;;;;;4.40;2.42;;;;;;;;;;4809457;29;20412;-76
2023/12/31 10:56:18;;;;;;;4.80;2.87;;;;;;;;;;4800139;29;20062;-74
2023/12/31 10:58:45;;;;;;;4.55;2.42;;;;;;;;;;4801836;29;20097;-75
2023/12/31 11:01:18;;;;;;;5.53;3.00;;;;;;;;;;4800511;29;20520;-73
2023/12/31 11:03:45;;;;;;;4.30;2.35;;;;;;;;;;4812365;29;20420;-75
2023/12/31 11:06:12;;;;;;;4.25;2.80;;;;;;;;;;4804397;29;20082;-74
2023/12/31 11:08:40;;;;;;;3.08;1.50;;;;;;;;;;4814599;29;20050;-74
2023/12/31 11:11:07;;;;;;;3.53;2.22;;;;;;;;;;4811600;29;20046;-74
2023/12/31 11:13:35;;;;;;;2.78;1.58;;;;;;;;;;4808605;29;20050;-76
2023/12/31 11:16:03;;;;;;;2.17;1.10;;;;;;;;;;4801829;29;20488;-75
2023/12/31 11:18:42;;;;;;;2.13;1.58;;;;;;;;;;4799776;29;20062;-74
2023/12/31 11:21:08;;;;;;;1.95;1.17;;;;;;;;;;4819339;29;20460;-75
2023/12/31 11:23:38;;;;;;;4.50;1.70;;;;;;;;;;4809486;29;20072;-75
2023/12/31 11:26:07;;;;;;;3.08;1.20;;;;;;;;;;4812110;29;20054;-74
2023/12/31 11:28:37;;;;;;;4.80;1.65;;;;;;;;;;4795377;29;20066;-75
2023/12/31 11:31:08;;;;;;;3.45;1.45;;;;;;;;;;4798587;29;20064;-75
2023/12/31 11:33:35;;;;;;;3.05;1.90;;;;;;;;;;4814413;29;20103;-74
2023/12/31 11:36:04;;;;;;;2.30;1.00;;;;;;;;;;4809932;29;20059;-75
2023/12/31 11:38:50;;;;;;;4.05;1.48;;;;;;;;;;4800453;29;20161;-74
2023/12/31 11:41:18;;;;;;;3.97;1.75;;;;;;;;;;4804163;29;20063;-75
2023/12/31 11:43:45;;;;;;;3.85;1.50;;;;;;;;;;4796485;29;20114;-75
2023/12/31 11:46:30;;;;;;;3.70;1.40;;;;;;;;;;4806686;29;20054;-74
2023/12/31 11:48:57;;;;;;;4.97;1.35;;;;;;;;;;4815546;29;20094;-75
2023/12/31 11:51:27;;;;;;;4.00;1.73;;;;;;;;;;4815547;29;20066;-75
2023/12/31 11:53:53;;;;;;;3.22;1.50;;;;;;;;;;4797238;29;20450;-74
2023/12/31 11:56:20;;;;;;;4.05;1.40;;;;;;;;;;4810295;29;20176;-74
2023/12/31 11:58:47;;;;;;;5.10;1.52;;;;;;;;;;4804539;29;20066;-75
2023/12/31 12:01:13;;;;;;;1.92;0.82;;;;;;;;;;4812414;29;20538;-77
2023/12/31 12:03:40;;;;;;;2.90;1.30;;;;;;;;;;4810352;29;20055;-75
2023/12/31 12:06:06;;;;;;;2.10;1.00;;;;;;;;;;4816663;29;20058;-74
2023/12/31 12:08:33;;;;;;;4.78;1.27;;;;;;;;;;4801847;29;20051;-74
2023/12/31 12:11:02;;;;;;;2.60;1.10;;;;;;;;;;4812896;29;20282;-74
2023/12/31 12:13:29;;;;;;;5.43;3.60;;;;;;;;;;4806127;29;20047;-75
2023/12/31 12:15:58;;;;;;;4.57;1.90;;;;;;;;;;4799655;29;20403;-74
2023/12/31 12:18:25;;;;;;;3.90;2.40;;;;;;;;;;4802455;29;20085;-74
2023/12/31 12:20:52;;;;;;;1.30;1.00;;;;;;;;;;4817790;29;20054;-75
2023/12/31 12:23:19;;;;;;;3.63;1.42;;;;;;;;;;4811431;29;20090;-75
2023/12/31 12:25:46;;;;;;;4.72;2.13;;;;;;;;;;4818213;29;20127;-76
2023/12/31 12:28:14;;;;;;;3.33;1.30;;;;;;;;;;4805649;29;20050;-75
2023/12/31 12:30:41;;;;;;;2.22;1.10;;;;;;;;;;4814610;29;20087;-75
2023/12/31 12:33:08;;;;;;;3.53;1.40;;;;;;;;;;4811716;29;20062;-74
2023/12/31 12:35:40;;;;;;;3.38;1.13;;;;;;;;;;4816127;29;20047;-74
2023/12/31 12:38:06;;;;;;;1.75;1.17;;;;;;;;;;4817652;29;20073;-75
2023/12/31 12:40:33;;;;;;;3.85;1.40;;;;;;;;;;4806573;29;20129;-75
2023/12/31 12:43:02;;;;;;;3.08;1.33;;;;;;;;;;4804246;29;20058;-76
2023/12/31 12:45:29;;;;;;;4.07;1.33;;;;;;;;;;4812855;29;20046;-74
2023/12/31 12:48:02;;;;;;;4.32;1.40;;;;;;;;;;4818085;29;20502;-75
2023/12/31 12:50:30;;;;;;;4.05;1.38;;;;;;;;;;4817591;29;20103;-74
2023/12/31 12:52:57;;;;;;;3.78;1.52;;;;;;;;;;4795111;29;20696;-74
2023/12/31 12:55:23;;;;;;;5.28;1.10;;;;;;;;;;4814391;29;20085;-74
2023/12/31 12:57:50;;;;;;;4.28;1.58;;;;;;;;;;4802392;29;20051;-75
2023/12/31 13:00:17;;;;;;;4.53;2.03;;;;;;;;;;4816604;29;20055;-74
2023/12/31 13:02:44;;;;;;;3.80;1.10;;;;;;;;;;4811869;29;20054;-73
2023/12/31 13:05:11;;;;;;;6.00;1.52;;;;;;;;;;4817602;29;20640;-76
2023/12/31 13:07:37;;;;;;;3.13;0.95;;;;;;;;;;4817844;29;20069;-74
2023/12/31 13:10:04;;;;;;;3.60;1.27;;;;;;;;;;4780840;29;20074;-73
2023/12/31 13:12:30;;;;;;;3.17;1.35;;;;;;;;;;4814411;29;20092;-72
2023/12/31 13:14:57;;;;;;;3.58;1.48;;;;;;;;;;4810504;29;20108;-72
2023/12/31 13:17:25;;;;;;;4.35;2.00;;;;;;;;;;4816546;29;20060;-73
2023/12/31 13:19:54;;;;;;;;;;;;;;;;;;4816227;29;20389;-73
2023/12/31 13:22:21;;;;;;;3.38;1.55;;;;;;;;;;4811205;29;19997;-73
2023/12/31 13:24:47;;;;;;;3.75;0.95;;;;;;;;;;4797775;29;20050;-74
2023/12/31 13:27:14;;;;;;;1.40;0.77;;;;;;;;;;4806660;29;20050;-73
2023/12/31 13:29:41;;;;;;;3.15;1.17;;;;;;;;;;4816019;29;20108;-73
2023/12/31 13:32:09;;;;;;;1.48;0.75;;;;;;;;;;4810501;29;20558;-76
2023/12/31 13:34:35;;;;;;;6.07;1.23;;;;;;;;;;4813098;29;20424;-73
2023/12/31 13:37:02;;;;;;;4.35;1.00;;;;;;;;;;4810651;29;20090;-74
2023/12/31 13:39:28;;;;;;;4.65;1.20;;;;;;;;;;4808406;29;20762;-74
2023/12/31 13:41:55;;;;;;;7.28;1.30;;;;;;;;;;4802157;29;20420;-73
2023/12/31 13:44:21;;;;;;;4.18;1.23;;;;;;;;;;4799541;29;20120;-73
2023/12/31 13:46:48;;;;;;;5.00;1.13;;;;;;;;;;4797299;29;20050;-73
2023/12/31 13:49:14;;;;;;;5.97;1.55;;;;;;;;;;4817638;29;20187;-74
2023/12/31 13:51:40;;;;;;;3.58;1.00;;;;;;;;;;4792809;29;20134;-75
2023/12/31 13:54:07;;;;;;;10.30;1.65;;;;;;;;;;4805911;29;20568;-75
2023/12/31 13:56:33;;;;;;;4.78;1.75;;;;;;;;;;4799125;29;20058;-81
2023/12/31 13:59:00;;;;;;;5.35;1.30;;;;;;;;;;4802144;29;20051;-80
2023/12/31 14:01:26;;;;;;;6.82;1.30;;;;;;;;;;4805818;29;20135;-78
2023/12/31 14:03:53;;;;;;;3.88;1.17;;;;;;;;;;4816453;29;20062;-77
2023/12/31 14:06:19;;;;;;;5.38;1.40;;;;;;;;;;4809701;29;20066;-78
2023/12/31 14:08:46;;;;;;;6.72;1.17;;;;;;;;;;4809055;29;20054;-78
2023/12/31 14:11:13;;;;;;;6.07;1.42;;;;;;;;;;4803027;29;20065;-76
2023/12/31 14:13:39;;;;;;;7.10;1.50;;;;;;;;;;4786555;29;20073;-77
2023/12/31 14:16:06;;;;;;;6.13;1.67;;;;;;;;;;4809930;29;20488;-71
2023/12/31 14:18:32;;;;;;;5.95;1.58;;;;;;;;;;4816566;29;20054;-74
2023/12/31 14:20:59;;;;;;;6.55;2.20;;;;;;;;;;4800220;29;20059;-75
2023/12/31 14:23:25;;;;;;;9.10;1.90;;;;;;;;;;4785436;29;20115;-75
2023/12/31 14:25:51;;;;;;;5.45;1.70;;;;;;;;;;4801672;29;20144;-73
2023/12/31 14:28:18;;;;;;;5.88;1.30;;;;;;;;;;4813615;29;20464;-73
2023/12/31 14:30:44;;;;;;;4.75;1.65;;;;;;;;;;4816883;29;20109;-74
2023/12/31 14:33:11;;;;;;;4.80;1.77;;;;;;;;;;4811472;29;20697;-73
2023/12/31 14:35:38;;;;;;;7.53;1.70;;;;;;;;;;4812587;29;20122;-73
2023/12/31 14:38:06;;;;;;;10.02;2.00;;;;;;;;;;4806481;29;20095;-74
2023/12/31 14:40:34;;;;;;;5.75;1.88;;;;;;;;;;4815963;29;20051;-74
2023/12/31 14:43:00;;;;;;;15.20;2.13;;;;;;;;;;4804804;29;20533;-74